ROMMA est une association bénévole à but non lucratif. Votre soutien est indispensable : ADHERER à ROMMA ou FAIRE un DON

Taninges - (74, Haute-Savoie)

Vallée du Giffre (635 m)   Longitude: 06° 35' 38" E   Latitude: 46° 06' 21" N Station romma n°98
 

Détail journalier du     <<     >>

Température Precipitation Humidité Pression Vent Dir Rafale Dir. rafale Ensol.
Heure (°C) (mm) (%) (hPa) (km/h) (km/h) (min)
01:00 12.709110181ESE5S0
02:00 12.109010181ESE5SE0
03:00 12.109110191SE5SE0
04:00 11.609210192ESE5OSO0
05:00 10.4093101803ESE0
06:00 9.509510181ESE5SE0
07:00 8.6095101903SSE0
08:00 10.9097101903SSE25
09:00 14.008810182SSE5SSE60
10:00 17.107110182SSE6SSE60
11:00 19.206210173OSO8SSE60
12:00 20.206610166O18SSO60
13:00 21.106510157SO18SO50
14:00 22.2062101510OSO21SO35
15:00 22.3059101513OSO24O45
16:00 22.5058101512OSO23OSO40
17:00 23.305510159O21SO55
18:00 23.305610156SSO16SO45
19:00 22.905710145OSO13SO55
20:00 20.106810151ENE8SO0
21:00 17.407810152ENE8ENE0
22:00 15.108710161SSE5SSE0
23:00 13.409010161SE3SSE0
minuit 12.5093101605SSE0

Graphique du 16-08-2019

 

Serveur OMMA